sensor_id;sensor_type;location;lat;lon;timestamp;P1;durP1;ratioP1;P2;durP2;ratioP2
63926;SDS011;50103;47.960;21.712;2023-01-19T06:02:23;29.30;;;14.30;;
63926;SDS011;50103;47.960;21.712;2023-01-19T06:04:53;27.20;;;13.30;;
63926;SDS011;50103;47.960;21.712;2023-01-19T06:07:19;29.80;;;14.70;;
63926;SDS011;50103;47.960;21.712;2023-01-19T06:09:45;29.60;;;15.00;;
63926;SDS011;50103;47.960;21.712;2023-01-19T06:12:11;31.70;;;15.40;;
63926;SDS011;50103;47.960;21.712;2023-01-19T06:14:37;34.70;;;18.10;;
63926;SDS011;50103;47.960;21.712;2023-01-19T06:17:03;35.50;;;19.00;;
63926;SDS011;50103;47.960;21.712;2023-01-19T06:19:30;35.20;;;18.70;;
63926;SDS011;50103;47.960;21.712;2023-01-19T06:21:56;37.30;;;21.10;;
63926;SDS011;50103;47.960;21.712;2023-01-19T06:24:24;34.70;;;19.10;;
63926;SDS011;50103;47.960;21.712;2023-01-19T06:26:50;34.90;;;18.20;;
63926;SDS011;50103;47.960;21.712;2023-01-19T06:29:16;34.80;;;17.60;;
63926;SDS011;50103;47.960;21.712;2023-01-19T06:31:43;32.80;;;17.00;;
63926;SDS011;50103;47.960;21.712;2023-01-19T06:34:19;35.60;;;17.00;;
63926;SDS011;50103;47.960;21.712;2023-01-19T06:36:45;35.80;;;18.20;;
63926;SDS011;50103;47.960;21.712;2023-01-19T06:39:11;38.10;;;20.60;;
63926;SDS011;50103;47.960;21.712;2023-01-19T06:41:39;37.10;;;20.40;;
63926;SDS011;50103;47.960;21.712;2023-01-19T06:44:05;36.80;;;19.60;;
63926;SDS011;50103;47.960;21.712;2023-01-19T06:46:33;49.30;;;29.40;;
63926;SDS011;50103;47.960;21.712;2023-01-19T06:49:00;50.10;;;25.20;;
63926;SDS011;50103;47.960;21.712;2023-01-19T06:51:26;40.80;;;23.10;;
63926;SDS011;50103;47.960;21.712;2023-01-19T06:53:54;50.80;;;31.70;;
63926;SDS011;50103;47.960;21.712;2023-01-19T06:56:22;46.60;;;26.30;;
63926;SDS011;50103;47.960;21.712;2023-01-19T06:58:48;39.40;;;21.60;;
63926;SDS011;50103;47.960;21.712;2023-01-19T07:01:19;45.80;;;23.80;;
63926;SDS011;50103;47.960;21.712;2023-01-19T07:03:46;46.40;;;26.30;;
63926;SDS011;50103;47.960;21.712;2023-01-19T07:06:12;49.60;;;27.00;;
63926;SDS011;50103;47.960;21.712;2023-01-19T07:08:40;50.10;;;28.00;;
63926;SDS011;50103;47.960;21.712;2023-01-19T07:11:14;48.10;;;27.30;;
63926;SDS011;50103;47.960;21.712;2023-01-19T07:13:52;44.60;;;26.10;;
63926;SDS011;50103;47.960;21.712;2023-01-19T07:16:56;44.60;;;27.70;;
63926;SDS011;50103;47.960;21.712;2023-01-19T07:19:30;43.10;;;25.00;;
63926;SDS011;50103;47.960;21.712;2023-01-19T07:22:02;43.00;;;24.40;;
63926;SDS011;50103;47.960;21.712;2023-01-19T07:24:31;43.80;;;26.20;;
63926;SDS011;50103;47.960;21.712;2023-01-19T07:27:03;46.60;;;26.90;;
63926;SDS011;50103;47.960;21.712;2023-01-19T07:29:50;43.00;;;23.50;;
63926;SDS011;50103;47.960;21.712;2023-01-19T07:32:19;45.50;;;25.60;;
63926;SDS011;50103;47.960;21.712;2023-01-19T07:34:46;50.40;;;30.10;;
63926;SDS011;50103;47.960;21.712;2023-01-19T07:37:12;38.20;;;21.30;;
63926;SDS011;50103;47.960;21.712;2023-01-19T07:39:38;35.60;;;18.10;;
63926;SDS011;50103;47.960;21.712;2023-01-19T07:42:07;36.10;;;18.20;;
63926;SDS011;50103;47.960;21.712;2023-01-19T07:44:33;36.60;;;19.20;;
63926;SDS011;50103;47.960;21.712;2023-01-19T07:46:59;36.80;;;19.80;;
63926;SDS011;50103;47.960;21.712;2023-01-19T07:49:25;35.50;;;19.20;;
63926;SDS011;50103;47.960;21.712;2023-01-19T07:52:00;39.30;;;21.50;;
63926;SDS011;50103;47.960;21.712;2023-01-19T07:54:35;46.60;;;26.80;;
63926;SDS011;50103;47.960;21.712;2023-01-19T07:57:02;49.80;;;32.10;;
63926;SDS011;50103;47.960;21.712;2023-01-19T07:59:31;43.70;;;26.00;;
63926;SDS011;50103;47.960;21.712;2023-01-19T08:01:57;45.40;;;27.40;;
63926;SDS011;50103;47.960;21.712;2023-01-19T08:04:24;46.90;;;27.00;;
63926;SDS011;50103;47.960;21.712;2023-01-19T08:06:51;45.90;;;26.70;;
63926;SDS011;50103;47.960;21.712;2023-01-19T08:09:18;49.50;;;28.40;;
63926;SDS011;50103;47.960;21.712;2023-01-19T08:11:43;46.60;;;28.40;;
63926;SDS011;50103;47.960;21.712;2023-01-19T08:14:15;47.90;;;27.20;;
63926;SDS011;50103;47.960;21.712;2023-01-19T08:16:42;42.60;;;25.50;;
63926;SDS011;50103;47.960;21.712;2023-01-19T08:19:08;45.60;;;26.80;;
63926;SDS011;50103;47.960;21.712;2023-01-19T08:21:34;48.90;;;29.00;;
63926;SDS011;50103;47.960;21.712;2023-01-19T08:24:02;54.20;;;33.70;;
63926;SDS011;50103;47.960;21.712;2023-01-19T08:26:31;51.60;;;30.50;;
63926;SDS011;50103;47.960;21.712;2023-01-19T08:29:00;50.00;;;30.80;;
63926;SDS011;50103;47.960;21.712;2023-01-19T08:31:28;52.40;;;32.00;;
63926;SDS011;50103;47.960;21.712;2023-01-19T08:33:56;48.80;;;28.20;;
63926;SDS011;50103;47.960;21.712;2023-01-19T08:36:22;51.20;;;28.70;;
63926;SDS011;50103;47.960;21.712;2023-01-19T08:38:49;51.30;;;29.70;;
63926;SDS011;50103;47.960;21.712;2023-01-19T08:41:15;56.20;;;34.40;;
63926;SDS011;50103;47.960;21.712;2023-01-19T08:43:41;53.50;;;31.00;;
63926;SDS011;50103;47.960;21.712;2023-01-19T08:46:12;54.10;;;31.10;;
63926;SDS011;50103;47.960;21.712;2023-01-19T08:48:44;54.60;;;32.20;;
63926;SDS011;50103;47.960;21.712;2023-01-19T08:51:17;52.70;;;33.10;;
63926;SDS011;50103;47.960;21.712;2023-01-19T08:53:48;62.80;;;37.30;;
63926;SDS011;50103;47.960;21.712;2023-01-19T08:56:15;56.30;;;33.70;;
63926;SDS011;50103;47.960;21.712;2023-01-19T08:58:45;55.70;;;34.20;;
63926;SDS011;50103;47.960;21.712;2023-01-19T09:01:13;57.70;;;33.60;;
63926;SDS011;50103;47.960;21.712;2023-01-19T09:03:44;73.80;;;36.50;;
63926;SDS011;50103;47.960;21.712;2023-01-19T09:06:12;56.10;;;34.10;;
63926;SDS011;50103;47.960;21.712;2023-01-19T09:08:41;56.20;;;33.80;;
63926;SDS011;50103;47.960;21.712;2023-01-19T09:11:09;57.10;;;34.60;;
63926;SDS011;50103;47.960;21.712;2023-01-19T09:16:08;56.80;;;34.50;;
63926;SDS011;50103;47.960;21.712;2023-01-19T09:18:40;55.10;;;33.80;;
63926;SDS011;50103;47.960;21.712;2023-01-19T09:21:13;53.00;;;32.10;;
63926;SDS011;50103;47.960;21.712;2023-01-19T09:26:42;59.90;;;32.40;;
63926;SDS011;50103;47.960;21.712;2023-01-19T09:29:15;49.90;;;30.80;;
63926;SDS011;50103;47.960;21.712;2023-01-19T09:31:42;51.90;;;31.90;;
63926;SDS011;50103;47.960;21.712;2023-01-19T09:34:09;52.00;;;32.00;;
63926;SDS011;50103;47.960;21.712;2023-01-19T09:36:45;48.30;;;28.50;;
63926;SDS011;50103;47.960;21.712;2023-01-19T09:39:15;41.80;;;26.20;;
63926;SDS011;50103;47.960;21.712;2023-01-19T09:41:56;41.20;;;24.60;;
63926;SDS011;50103;47.960;21.712;2023-01-19T09:44:34;42.20;;;24.10;;
63926;SDS011;50103;47.960;21.712;2023-01-19T09:47:11;38.90;;;21.20;;
63926;SDS011;50103;47.960;21.712;2023-01-19T09:49:43;37.70;;;21.50;;
63926;SDS011;50103;47.960;21.712;2023-01-19T09:52:17;38.10;;;22.40;;
63926;SDS011;50103;47.960;21.712;2023-01-19T09:57:24;42.80;;;25.90;;
63926;SDS011;50103;47.960;21.712;2023-01-19T09:59:51;36.40;;;20.70;;
63926;SDS011;50103;47.960;21.712;2023-01-19T10:02:41;36.40;;;19.70;;
63926;SDS011;50103;47.960;21.712;2023-01-19T10:08:17;35.40;;;20.00;;
63926;SDS011;50103;47.960;21.712;2023-01-19T10:10:56;38.70;;;22.30;;
63926;SDS011;50103;47.960;21.712;2023-01-19T10:13:37;35.10;;;19.40;;
63926;SDS011;50103;47.960;21.712;2023-01-19T10:16:28;35.60;;;20.30;;
63926;SDS011;50103;47.960;21.712;2023-01-19T10:21:57;34.50;;;17.90;;
63926;SDS011;50103;47.960;21.712;2023-01-19T10:24:29;32.60;;;16.90;;
63926;SDS011;50103;47.960;21.712;2023-01-19T10:27:02;33.60;;;17.30;;
63926;SDS011;50103;47.960;21.712;2023-01-19T10:29:48;31.20;;;17.10;;
63926;SDS011;50103;47.960;21.712;2023-01-19T10:32:25;30.80;;;16.20;;
63926;SDS011;50103;47.960;21.712;2023-01-19T10:35:15;31.00;;;15.50;;
63926;SDS011;50103;47.960;21.712;2023-01-19T10:37:59;30.20;;;15.60;;
63926;SDS011;50103;47.960;21.712;2023-01-19T10:40:34;33.20;;;17.00;;
63926;SDS011;50103;47.960;21.712;2023-01-19T10:46:43;35.20;;;20.90;;
63926;SDS011;50103;47.960;21.712;2023-01-19T10:52:34;28.30;;;14.60;;
63926;SDS011;50103;47.960;21.712;2023-01-19T10:55:06;26.20;;;11.50;;
63926;SDS011;50103;47.960;21.712;2023-01-19T10:57:33;24.80;;;11.30;;
63926;SDS011;50103;47.960;21.712;2023-01-19T11:00:03;23.10;;;10.20;;
63926;SDS011;50103;47.960;21.712;2023-01-19T11:02:34;22.70;;;10.60;;
63926;SDS011;50103;47.960;21.712;2023-01-19T11:05:20;23.90;;;10.40;;
63926;SDS011;50103;47.960;21.712;2023-01-19T11:08:28;24.00;;;10.50;;
63926;SDS011;50103;47.960;21.712;2023-01-19T11:10:58;27.10;;;11.70;;
63926;SDS011;50103;47.960;21.712;2023-01-19T11:13:31;25.10;;;10.80;;
63926;SDS011;50103;47.960;21.712;2023-01-19T11:19:04;28.10;;;14.50;;
63926;SDS011;50103;47.960;21.712;2023-01-19T11:21:41;24.50;;;11.20;;
63926;SDS011;50103;47.960;21.712;2023-01-19T11:24:13;26.90;;;12.30;;
63926;SDS011;50103;47.960;21.712;2023-01-19T11:26:49;25.90;;;12.10;;
63926;SDS011;50103;47.960;21.712;2023-01-19T11:30:04;26.60;;;13.50;;
63926;SDS011;50103;47.960;21.712;2023-01-19T11:33:03;25.30;;;12.50;;
63926;SDS011;50103;47.960;21.712;2023-01-19T11:35:33;30.20;;;15.60;;
63926;SDS011;50103;47.960;21.712;2023-01-19T11:40:51;24.60;;;12.50;;
63926;SDS011;50103;47.960;21.712;2023-01-19T11:43:22;26.70;;;13.80;;
63926;SDS011;50103;47.960;21.712;2023-01-19T11:45:53;27.80;;;13.60;;
63926;SDS011;50103;47.960;21.712;2023-01-19T11:48:32;26.30;;;13.20;;
63926;SDS011;50103;47.960;21.712;2023-01-19T11:51:38;23.90;;;11.40;;
63926;SDS011;50103;47.960;21.712;2023-01-19T11:54:27;25.90;;;10.40;;
63926;SDS011;50103;47.960;21.712;2023-01-19T11:57:03;22.80;;;9.40;;
63926;SDS011;50103;47.960;21.712;2023-01-19T11:59:39;25.30;;;11.40;;
63926;SDS011;50103;47.960;21.712;2023-01-19T12:02:12;25.80;;;11.00;;
63926;SDS011;50103;47.960;21.712;2023-01-19T12:04:54;26.90;;;11.80;;
63926;SDS011;50103;47.960;21.712;2023-01-19T12:07:25;23.40;;;10.90;;
63926;SDS011;50103;47.960;21.712;2023-01-19T12:13:09;25.00;;;11.20;;
63926;SDS011;50103;47.960;21.712;2023-01-19T12:15:47;26.80;;;11.50;;
63926;SDS011;50103;47.960;21.712;2023-01-19T12:18:32;27.30;;;12.70;;
63926;SDS011;50103;47.960;21.712;2023-01-19T12:21:03;28.50;;;14.90;;
63926;SDS011;50103;47.960;21.712;2023-01-19T12:23:44;26.60;;;12.30;;
63926;SDS011;50103;47.960;21.712;2023-01-19T12:29:03;23.30;;;10.10;;
63926;SDS011;50103;47.960;21.712;2023-01-19T12:31:35;23.90;;;10.10;;
63926;SDS011;50103;47.960;21.712;2023-01-19T12:36:54;19.10;;;8.40;;
63926;SDS011;50103;47.960;21.712;2023-01-19T12:39:29;27.50;;;11.70;;
63926;SDS011;50103;47.960;21.712;2023-01-19T12:42:25;30.40;;;16.30;;
63926;SDS011;50103;47.960;21.712;2023-01-19T12:45:38;37.40;;;25.80;;
63926;SDS011;50103;47.960;21.712;2023-01-19T12:48:02;30.60;;;16.60;;
63926;SDS011;50103;47.960;21.712;2023-01-19T12:53:00;28.20;;;14.70;;
63926;SDS011;50103;47.960;21.712;2023-01-19T12:55:31;29.70;;;13.90;;
63926;SDS011;50103;47.960;21.712;2023-01-19T12:58:17;29.20;;;15.50;;
63926;SDS011;50103;47.960;21.712;2023-01-19T13:01:11;30.90;;;15.10;;
63926;SDS011;50103;47.960;21.712;2023-01-19T13:03:58;28.60;;;15.60;;
63926;SDS011;50103;47.960;21.712;2023-01-19T13:09:35;31.50;;;16.70;;
63926;SDS011;50103;47.960;21.712;2023-01-19T13:12:29;26.60;;;13.90;;
63926;SDS011;50103;47.960;21.712;2023-01-19T13:15:26;24.70;;;12.70;;
63926;SDS011;50103;47.960;21.712;2023-01-19T13:18:01;26.30;;;13.30;;
63926;SDS011;50103;47.960;21.712;2023-01-19T13:23:50;26.20;;;13.50;;
63926;SDS011;50103;47.960;21.712;2023-01-19T13:26:27;25.10;;;12.90;;
63926;SDS011;50103;47.960;21.712;2023-01-19T13:29:39;26.10;;;12.80;;
63926;SDS011;50103;47.960;21.712;2023-01-19T13:32:24;26.00;;;12.70;;
63926;SDS011;50103;47.960;21.712;2023-01-19T13:35:03;26.50;;;14.00;;
63926;SDS011;50103;47.960;21.712;2023-01-19T13:38:18;27.20;;;13.90;;
63926;SDS011;50103;47.960;21.712;2023-01-19T13:40:52;28.50;;;15.50;;
63926;SDS011;50103;47.960;21.712;2023-01-19T13:43:35;28.10;;;15.40;;
63926;SDS011;50103;47.960;21.712;2023-01-19T13:46:57;27.60;;;14.60;;
63926;SDS011;50103;47.960;21.712;2023-01-19T13:49:58;28.60;;;16.10;;
63926;SDS011;50103;47.960;21.712;2023-01-19T13:52:45;32.00;;;20.60;;
63926;SDS011;50103;47.960;21.712;2023-01-19T13:55:22;31.60;;;19.00;;
63926;SDS011;50103;47.960;21.712;2023-01-19T13:57:57;31.60;;;19.30;;
63926;SDS011;50103;47.960;21.712;2023-01-19T14:03:24;30.40;;;18.40;;
63926;SDS011;50103;47.960;21.712;2023-01-19T14:06:19;32.80;;;19.60;;
63926;SDS011;50103;47.960;21.712;2023-01-19T14:12:21;31.50;;;19.00;;
63926;SDS011;50103;47.960;21.712;2023-01-19T14:14:53;30.70;;;18.60;;
63926;SDS011;50103;47.960;21.712;2023-01-19T14:17:34;28.20;;;16.40;;
63926;SDS011;50103;47.960;21.712;2023-01-19T14:23:35;32.00;;;19.70;;
63926;SDS011;50103;47.960;21.712;2023-01-19T14:33:11;31.90;;;18.30;;
63926;SDS011;50103;47.960;21.712;2023-01-19T14:39:03;32.20;;;18.90;;
63926;SDS011;50103;47.960;21.712;2023-01-19T14:44:58;33.60;;;21.10;;
63926;SDS011;50103;47.960;21.712;2023-01-19T14:47:32;34.10;;;21.60;;
63926;SDS011;50103;47.960;21.712;2023-01-19T14:52:50;35.20;;;22.30;;
63926;SDS011;50103;47.960;21.712;2023-01-19T14:55:48;36.90;;;24.00;;
63926;SDS011;50103;47.960;21.712;2023-01-19T14:58:19;38.40;;;27.00;;
63926;SDS011;50103;47.960;21.712;2023-01-19T15:00:52;40.10;;;24.30;;
63926;SDS011;50103;47.960;21.712;2023-01-19T15:03:29;38.60;;;25.20;;
63926;SDS011;50103;47.960;21.712;2023-01-19T15:05:59;40.00;;;26.70;;
63926;SDS011;50103;47.960;21.712;2023-01-19T15:08:32;45.00;;;30.70;;
63926;SDS011;50103;47.960;21.712;2023-01-19T15:13:34;43.40;;;31.40;;
63926;SDS011;50103;47.960;21.712;2023-01-19T15:19:16;44.80;;;32.30;;
63926;SDS011;50103;47.960;21.712;2023-01-19T15:21:42;36.70;;;25.30;;
63926;SDS011;50103;47.960;21.712;2023-01-19T15:24:10;45.30;;;30.30;;
63926;SDS011;50103;47.960;21.712;2023-01-19T15:26:40;43.50;;;31.70;;
63926;SDS011;50103;47.960;21.712;2023-01-19T15:29:12;48.00;;;35.70;;
63926;SDS011;50103;47.960;21.712;2023-01-19T15:31:52;51.90;;;35.50;;
63926;SDS011;50103;47.960;21.712;2023-01-19T15:34:21;53.00;;;36.00;;
63926;SDS011;50103;47.960;21.712;2023-01-19T15:36:47;53.50;;;32.50;;
63926;SDS011;50103;47.960;21.712;2023-01-19T15:39:24;49.10;;;28.20;;
63926;SDS011;50103;47.960;21.712;2023-01-19T15:41:50;47.10;;;27.30;;
63926;SDS011;50103;47.960;21.712;2023-01-19T15:44:17;46.00;;;26.70;;
63926;SDS011;50103;47.960;21.712;2023-01-19T15:46:44;45.80;;;24.90;;
63926;SDS011;50103;47.960;21.712;2023-01-19T15:49:09;44.50;;;25.30;;
63926;SDS011;50103;47.960;21.712;2023-01-19T15:51:38;44.70;;;25.30;;
63926;SDS011;50103;47.960;21.712;2023-01-19T15:54:05;44.20;;;25.00;;
63926;SDS011;50103;47.960;21.712;2023-01-19T15:56:34;42.80;;;24.40;;
63926;SDS011;50103;47.960;21.712;2023-01-19T15:59:00;43.20;;;23.90;;
63926;SDS011;50103;47.960;21.712;2023-01-19T16:01:30;41.30;;;24.40;;
63926;SDS011;50103;47.960;21.712;2023-01-19T16:04:02;37.50;;;20.30;;
63926;SDS011;50103;47.960;21.712;2023-01-19T16:06:40;32.30;;;17.90;;
63926;SDS011;50103;47.960;21.712;2023-01-19T16:09:07;31.30;;;17.50;;
63926;SDS011;50103;47.960;21.712;2023-01-19T16:11:34;30.80;;;17.50;;
63926;SDS011;50103;47.960;21.712;2023-01-19T16:14:03;29.60;;;17.10;;
63926;SDS011;50103;47.960;21.712;2023-01-19T16:16:29;31.90;;;17.30;;
63926;SDS011;50103;47.960;21.712;2023-01-19T16:18:55;32.00;;;18.30;;
63926;SDS011;50103;47.960;21.712;2023-01-19T16:21:21;31.50;;;19.40;;
63926;SDS011;50103;47.960;21.712;2023-01-19T16:23:47;37.50;;;21.80;;
63926;SDS011;50103;47.960;21.712;2023-01-19T16:26:27;31.90;;;18.10;;
63926;SDS011;50103;47.960;21.712;2023-01-19T16:29:02;31.80;;;18.00;;
63926;SDS011;50103;47.960;21.712;2023-01-19T16:31:36;31.30;;;18.20;;
63926;SDS011;50103;47.960;21.712;2023-01-19T16:34:04;31.70;;;17.90;;
63926;SDS011;50103;47.960;21.712;2023-01-19T16:36:34;34.30;;;20.50;;
63926;SDS011;50103;47.960;21.712;2023-01-19T16:39:13;32.90;;;19.40;;
63926;SDS011;50103;47.960;21.712;2023-01-19T16:41:42;35.20;;;19.80;;
63926;SDS011;50103;47.960;21.712;2023-01-19T16:44:12;30.60;;;17.60;;
63926;SDS011;50103;47.960;21.712;2023-01-19T16:46:40;28.70;;;15.10;;
63926;SDS011;50103;47.960;21.712;2023-01-19T16:49:12;28.80;;;14.40;;
63926;SDS011;50103;47.960;21.712;2023-01-19T16:51:42;29.10;;;13.30;;
63926;SDS011;50103;47.960;21.712;2023-01-19T16:54:12;26.60;;;13.30;;
63926;SDS011;50103;47.960;21.712;2023-01-19T16:56:42;27.20;;;13.70;;
63926;SDS011;50103;47.960;21.712;2023-01-19T16:59:11;28.50;;;13.90;;
63926;SDS011;50103;47.960;21.712;2023-01-19T17:01:39;27.80;;;14.30;;
63926;SDS011;50103;47.960;21.712;2023-01-19T17:04:05;27.60;;;13.60;;
63926;SDS011;50103;47.960;21.712;2023-01-19T17:06:34;25.80;;;12.70;;
63926;SDS011;50103;47.960;21.712;2023-01-19T17:09:01;25.50;;;11.30;;
63926;SDS011;50103;47.960;21.712;2023-01-19T17:11:28;23.90;;;11.00;;
63926;SDS011;50103;47.960;21.712;2023-01-19T17:13:59;28.10;;;13.00;;
63926;SDS011;50103;47.960;21.712;2023-01-19T17:16:31;25.60;;;11.40;;
63926;SDS011;50103;47.960;21.712;2023-01-19T17:18:58;24.10;;;11.30;;
63926;SDS011;50103;47.960;21.712;2023-01-19T17:21:25;23.50;;;10.80;;
63926;SDS011;50103;47.960;21.712;2023-01-19T17:23:52;23.40;;;10.70;;
63926;SDS011;50103;47.960;21.712;2023-01-19T17:26:19;23.20;;;10.30;;
63926;SDS011;50103;47.960;21.712;2023-01-19T17:28:48;24.80;;;10.10;;
63926;SDS011;50103;47.960;21.712;2023-01-19T17:31:18;25.00;;;11.80;;
63926;SDS011;50103;47.960;21.712;2023-01-19T17:33:46;25.10;;;11.90;;
63926;SDS011;50103;47.960;21.712;2023-01-19T17:36:16;26.30;;;11.60;;
63926;SDS011;50103;47.960;21.712;2023-01-19T17:38:46;25.70;;;12.70;;
63926;SDS011;50103;47.960;21.712;2023-01-19T17:41:14;26.60;;;13.80;;
63926;SDS011;50103;47.960;21.712;2023-01-19T17:43:41;27.60;;;13.60;;
63926;SDS011;50103;47.960;21.712;2023-01-19T17:46:07;28.60;;;17.10;;
63926;SDS011;50103;47.960;21.712;2023-01-19T17:48:34;26.80;;;14.80;;
63926;SDS011;50103;47.960;21.712;2023-01-19T17:51:01;27.10;;;14.10;;
63926;SDS011;50103;47.960;21.712;2023-01-19T17:53:30;28.20;;;14.70;;
63926;SDS011;50103;47.960;21.712;2023-01-19T17:56:03;38.50;;;25.70;;
63926;SDS011;50103;47.960;21.712;2023-01-19T17:58:30;27.70;;;13.20;;
63926;SDS011;50103;47.960;21.712;2023-01-19T18:00:56;26.20;;;14.20;;
63926;SDS011;50103;47.960;21.712;2023-01-19T18:03:22;25.70;;;13.40;;
63926;SDS011;50103;47.960;21.712;2023-01-19T18:05:51;27.00;;;14.90;;
63926;SDS011;50103;47.960;21.712;2023-01-19T18:10:53;35.50;;;21.90;;
63926;SDS011;50103;47.960;21.712;2023-01-19T18:13:19;28.20;;;15.90;;
63926;SDS011;50103;47.960;21.712;2023-01-19T18:15:46;39.20;;;21.80;;
63926;SDS011;50103;47.960;21.712;2023-01-19T18:18:15;35.60;;;21.20;;
63926;SDS011;50103;47.960;21.712;2023-01-19T18:20:42;38.20;;;20.70;;
63926;SDS011;50103;47.960;21.712;2023-01-19T18:23:11;31.80;;;15.80;;
63926;SDS011;50103;47.960;21.712;2023-01-19T18:25:38;31.40;;;14.90;;
63926;SDS011;50103;47.960;21.712;2023-01-19T18:28:04;27.50;;;15.30;;
63926;SDS011;50103;47.960;21.712;2023-01-19T18:30:35;28.50;;;15.50;;
63926;SDS011;50103;47.960;21.712;2023-01-19T18:33:01;31.00;;;18.30;;
63926;SDS011;50103;47.960;21.712;2023-01-19T18:35:28;32.20;;;19.80;;
63926;SDS011;50103;47.960;21.712;2023-01-19T18:37:54;44.50;;;30.80;;
63926;SDS011;50103;47.960;21.712;2023-01-19T18:40:22;30.00;;;17.40;;
63926;SDS011;50103;47.960;21.712;2023-01-19T18:42:49;28.00;;;15.30;;
63926;SDS011;50103;47.960;21.712;2023-01-19T18:45:16;27.00;;;14.80;;
63926;SDS011;50103;47.960;21.712;2023-01-19T18:47:48;29.70;;;15.60;;
63926;SDS011;50103;47.960;21.712;2023-01-19T18:50:17;29.50;;;16.30;;
63926;SDS011;50103;47.960;21.712;2023-01-19T18:52:45;27.90;;;15.80;;
63926;SDS011;50103;47.960;21.712;2023-01-19T18:55:23;30.10;;;17.40;;
63926;SDS011;50103;47.960;21.712;2023-01-19T18:57:48;31.20;;;18.10;;
63926;SDS011;50103;47.960;21.712;2023-01-19T19:00:23;33.00;;;19.10;;
63926;SDS011;50103;47.960;21.712;2023-01-19T19:02:50;31.00;;;16.60;;
63926;SDS011;50103;47.960;21.712;2023-01-19T19:05:15;32.30;;;20.20;;
63926;SDS011;50103;47.960;21.712;2023-01-19T19:07:42;28.70;;;15.80;;
63926;SDS011;50103;47.960;21.712;2023-01-19T19:10:08;27.20;;;15.10;;
63926;SDS011;50103;47.960;21.712;2023-01-19T19:12:34;25.80;;;13.40;;
63926;SDS011;50103;47.960;21.712;2023-01-19T19:15:00;25.90;;;15.40;;
63926;SDS011;50103;47.960;21.712;2023-01-19T19:17:29;25.20;;;13.30;;
63926;SDS011;50103;47.960;21.712;2023-01-19T19:19:59;25.10;;;12.40;;
63926;SDS011;50103;47.960;21.712;2023-01-19T19:22:24;26.20;;;13.50;;
63926;SDS011;50103;47.960;21.712;2023-01-19T19:24:59;24.00;;;11.60;;
63926;SDS011;50103;47.960;21.712;2023-01-19T19:27:25;26.80;;;14.40;;
63926;SDS011;50103;47.960;21.712;2023-01-19T19:29:51;23.40;;;11.10;;
63926;SDS011;50103;47.960;21.712;2023-01-19T19:32:19;23.50;;;11.40;;
63926;SDS011;50103;47.960;21.712;2023-01-19T19:34:48;23.80;;;11.10;;
63926;SDS011;50103;47.960;21.712;2023-01-19T19:37:21;22.40;;;10.50;;
63926;SDS011;50103;47.960;21.712;2023-01-19T19:39:48;24.40;;;12.50;;
63926;SDS011;50103;47.960;21.712;2023-01-19T19:42:14;22.30;;;10.40;;
63926;SDS011;50103;47.960;21.712;2023-01-19T19:44:42;21.90;;;9.20;;
63926;SDS011;50103;47.960;21.712;2023-01-19T19:47:08;21.00;;;8.60;;
63926;SDS011;50103;47.960;21.712;2023-01-19T19:49:34;21.30;;;8.60;;
63926;SDS011;50103;47.960;21.712;2023-01-19T19:51:59;20.40;;;7.80;;
63926;SDS011;50103;47.960;21.712;2023-01-19T19:54:33;20.20;;;7.70;;
63926;SDS011;50103;47.960;21.712;2023-01-19T19:56:59;18.90;;;7.30;;
63926;SDS011;50103;47.960;21.712;2023-01-19T19:59:28;17.90;;;5.10;;
